Time;durP1;ratioP1;P1;durP2;ratioP2;P2;SDS_P1;SDS_P2;PMS_P1;PMS_P2;Temp;Humidity;BMP_temperature;BMP_pressure;BME280_temperature;BME280_humidity;BME280_pressure;Samples;Min_cycle;Max_cycle;Signal;HPM_P1;HPM_P2
2022/06/25 00:02:04;;;;;;;5.45;3.15;;;;;;;;;;5111650;27;20426;-70
2022/06/25 00:06:17;;;;;;;8.10;3.42;;;;;;;;;;5111995;27;20904;-70
2022/06/25 00:08:46;;;;;;;5.68;3.30;;;;;;;;;;5111136;28;20030;-70
2022/06/25 00:13:10;;;;;;;7.43;4.10;;;;;;;;;;5111645;27;20388;-70
2022/06/25 00:16:02;;;;;;;5.63;3.30;;;;;;;;;;5112146;27;20400;-71
2022/06/25 00:18:28;;;;;;;5.80;2.85;;;;;;;;;;5110913;28;20032;-71
2022/06/25 00:21:47;;;;;;;5.20;3.00;;;;;;;;;;5112103;27;20392;-71
2022/06/25 00:25:21;;;;;;;5.03;3.10;;;;;;;;;;5110958;27;20401;-71
2022/06/25 00:27:47;;;;;;;5.78;3.45;;;;;;;;;;5111307;28;20039;-71
2022/06/25 00:32:25;;;;;;;5.72;3.10;;;;;;;;;;5110896;27;20911;-71
2022/06/25 00:37:02;;;;;;;5.38;3.15;;;;;;;;;;5112005;27;20423;-71
2022/06/25 00:42:53;;;;;;;6.65;3.25;;;;;;;;;;5112068;27;20706;-71
2022/06/25 00:45:53;;;;;;;5.35;3.40;;;;;;;;;;5111036;27;20584;-71
2022/06/25 00:48:19;;;;;;;7.82;3.47;;;;;;;;;;5111264;28;20426;-70
2022/06/25 00:50:45;;;;;;;5.75;3.42;;;;;;;;;;5111437;28;20028;-70
2022/06/25 00:54:54;;;;;;;6.75;4.03;;;;;;;;;;5112109;27;20393;-70
2022/06/25 00:57:24;;;;;;;5.13;3.25;;;;;;;;;;5111197;28;20028;-70
2022/06/25 00:59:50;;;;;;;6.50;4.03;;;;;;;;;;5110792;28;20069;-70
2022/06/25 01:07:11;;;;;;;6.28;3.40;;;;;;;;;;5111104;27;20384;-70
2022/06/25 01:09:39;;;;;;;5.57;3.80;;;;;;;;;;5111318;28;20020;-70
2022/06/25 01:12:05;;;;;;;5.88;4.00;;;;;;;;;;5111259;28;20028;-70
2022/06/25 01:14:31;;;;;;;6.15;3.53;;;;;;;;;;5110849;28;20026;-70
2022/06/25 01:18:59;;;;;;;5.55;3.65;;;;;;;;;;5112080;27;20422;-70
2022/06/25 01:21:36;;;;;;;6.60;3.67;;;;;;;;;;5110960;27;20453;-70
2022/06/25 01:24:03;;;;;;;7.03;3.50;;;;;;;;;;5111301;28;20103;-70
2022/06/25 01:27:50;;;;;;;6.55;3.60;;;;;;;;;;5111260;27;20895;-71
2022/06/25 01:30:16;;;;;;;9.32;3.65;;;;;;;;;;5111163;28;20106;-71
2022/06/25 01:34:40;;;;;;;5.90;3.13;;;;;;;;;;5111350;27;20392;-71
2022/06/25 01:37:06;;;;;;;6.57;3.20;;;;;;;;;;5111512;28;20123;-70
2022/06/25 01:39:33;;;;;;;5.43;3.10;;;;;;;;;;5127016;28;20026;-71
2022/06/25 01:41:59;;;;;;;6.03;3.33;;;;;;;;;;5110896;28;20031;-71
2022/06/25 01:48:18;;;;;;;5.50;3.03;;;;;;;;;;5110989;27;20981;-71
2022/06/25 01:57:08;;;;;;;6.10;3.60;;;;;;;;;;5111489;27;20461;-70
2022/06/25 02:02:56;;;;;;;6.28;3.42;;;;;;;;;;5111013;27;20392;-70
2022/06/25 02:08:13;;;;;;;6.55;3.45;;;;;;;;;;5111524;28;20046;-70
2022/06/25 02:10:58;;;;;;;8.07;3.50;;;;;;;;;;5110831;27;20381;-71
2022/06/25 02:14:30;;;;;;;5.82;3.42;;;;;;;;;;5111636;27;20401;-71
2022/06/25 02:16:56;;;;;;;8.25;3.50;;;;;;;;;;5110886;28;20503;-71
2022/06/25 02:19:23;;;;;;;4.80;3.28;;;;;;;;;;5111235;28;20038;-70
2022/06/25 02:22:01;;;;;;;7.47;3.70;;;;;;;;;;5111168;28;20099;-71
2022/06/25 02:26:02;;;;;;;7.47;3.90;;;;;;;;;;5111791;27;20397;-71
2022/06/25 02:28:28;;;;;;;5.75;3.67;;;;;;;;;;5111287;28;20085;-71
2022/06/25 02:31:32;;;;;;;5.22;2.92;;;;;;;;;;5111031;27;20912;-71
2022/06/25 02:33:58;;;;;;;8.70;3.65;;;;;;;;;;5111551;28;20055;-71
2022/06/25 02:36:24;;;;;;;5.95;3.20;;;;;;;;;;5111324;28;20464;-71
2022/06/25 02:40:47;;;;;;;5.85;3.85;;;;;;;;;;5111540;27;20422;-71
2022/06/25 02:43:13;;;;;;;6.07;3.55;;;;;;;;;;5111533;28;20422;-70
2022/06/25 02:45:39;;;;;;;5.28;3.50;;;;;;;;;;5110908;28;20057;-71
2022/06/25 02:49:28;;;;;;;5.72;3.33;;;;;;;;;;5112069;27;20418;-71
2022/06/25 02:51:55;;;;;;;7.00;3.60;;;;;;;;;;5111235;28;20209;-71
2022/06/25 02:54:21;;;;;;;7.60;3.70;;;;;;;;;;5111257;28;20024;-71
2022/06/25 02:59:50;;;;;;;6.32;3.78;;;;;;;;;;5111024;28;20473;-70
2022/06/25 03:02:17;;;;;;;5.82;3.05;;;;;;;;;;5110985;28;20384;-70
2022/06/25 03:04:43;;;;;;;7.15;3.33;;;;;;;;;;5110997;28;20031;-71
2022/06/25 03:09:46;;;;;;;6.13;3.47;;;;;;;;;;5112054;27;20423;-71
2022/06/25 03:13:47;;;;;;;6.35;3.85;;;;;;;;;;5110881;27;20397;-71
2022/06/25 03:16:13;;;;;;;5.65;3.15;;;;;;;;;;5127628;28;20031;-71
2022/06/25 03:19:20;;;;;;;6.57;3.08;;;;;;;;;;5111634;27;20783;-71
2022/06/25 03:21:46;;;;;;;5.90;3.47;;;;;;;;;;5111239;28;20107;-71
2022/06/25 03:24:12;;;;;;;5.55;3.20;;;;;;;;;;5111221;28;20035;-71
2022/06/25 03:26:39;;;;;;;6.40;3.60;;;;;;;;;;5110826;28;20023;-71
2022/06/25 03:29:05;;;;;;;5.43;3.03;;;;;;;;;;5111123;28;20425;-70
2022/06/25 03:31:31;;;;;;;7.07;3.70;;;;;;;;;;5111127;28;20024;-71
2022/06/25 03:37:58;;;;;;;5.95;3.38;;;;;;;;;;5051139;28;20800;-71
2022/06/25 03:40:24;;;;;;;6.22;3.30;;;;;;;;;;5050785;28;20029;-71
2022/06/25 03:42:51;;;;;;;6.38;3.58;;;;;;;;;;5050588;28;20021;-70
2022/06/25 03:45:17;;;;;;;8.05;3.42;;;;;;;;;;5050590;28;20394;-70
2022/06/25 03:47:50;;;;;;;6.53;3.50;;;;;;;;;;5050131;28;20021;-70
2022/06/25 03:50:16;;;;;;;;;;;;;;;;;;5051166;28;20025;-71
2022/06/25 03:52:42;;;;;;;6.07;3.38;;;;;;;;;;5049213;28;19959;-70
2022/06/25 03:59:18;;;;;;;5.93;3.33;;;;;;;;;;5111452;27;20418;-71
2022/06/25 04:01:44;;;;;;;5.43;3.50;;;;;;;;;;5110824;28;20031;-71
2022/06/25 04:04:45;;;;;;;5.70;3.53;;;;;;;;;;5111979;27;20373;-70
2022/06/25 04:07:11;;;;;;;6.25;3.80;;;;;;;;;;5111507;28;20023;-70
2022/06/25 04:16:07;;;;;;;6.70;3.78;;;;;;;;;;5111150;27;20125;-70
2022/06/25 04:18:33;;;;;;;10.88;3.75;;;;;;;;;;5111502;28;20052;-70
2022/06/25 04:22:15;;;;;;;9.25;4.47;;;;;;;;;;5111528;27;20438;-70
2022/06/25 04:24:42;;;;;;;7.03;3.83;;;;;;;;;;5110847;28;20020;-71
2022/06/25 04:29:03;;;;;;;6.45;3.70;;;;;;;;;;5111370;28;20026;-70
2022/06/25 04:29:54;;;;;;;7.00;3.22;;;;;;;;;;5110724;28;20491;-71
2022/06/25 04:32:30;;;;;;;5.93;3.55;;;;;;;;;;5111746;27;20981;-71
2022/06/25 04:35:52;;;;;;;5.05;3.13;;;;;;;;;;5111675;27;20393;-71
2022/06/25 04:40:02;;;;;;;7.25;3.53;;;;;;;;;;5111458;27;20442;-70
2022/06/25 04:42:28;;;;;;;4.97;3.10;;;;;;;;;;5111275;28;20107;-70
2022/06/25 04:48:45;;;;;;;5.07;2.55;;;;;;;;;;5111344;27;20388;-70
2022/06/25 04:51:11;;;;;;;4.10;2.60;;;;;;;;;;5109534;28;20032;-70
2022/06/25 04:55:28;;;;;;;7.43;3.70;;;;;;;;;;5112078;27;20389;-70
2022/06/25 04:57:54;;;;;;;3.85;2.58;;;;;;;;;;5110854;28;20110;-70
2022/06/25 05:00:20;;;;;;;7.20;3.15;;;;;;;;;;5111078;28;20081;-70
2022/06/25 05:04:31;;;;;;;5.28;3.45;;;;;;;;;;5111923;27;20393;-70
2022/06/25 05:06:58;;;;;;;6.78;3.55;;;;;;;;;;5111409;28;20016;-70
2022/06/25 05:09:26;;;;;;;4.90;3.22;;;;;;;;;;5111157;28;20023;-70
2022/06/25 05:13:50;;;;;;;5.60;2.88;;;;;;;;;;5110884;27;20389;-70
2022/06/25 05:16:17;;;;;;;4.75;2.70;;;;;;;;;;5111328;28;20016;-70
2022/06/25 05:18:43;;;;;;;5.55;2.90;;;;;;;;;;5110714;28;20388;-71
2022/06/25 05:21:09;;;;;;;5.20;2.47;;;;;;;;;;5111172;28;20070;-71
2022/06/25 05:23:35;;;;;;;5.97;2.85;;;;;;;;;;5111153;28;20369;-71
2022/06/25 05:26:02;;;;;;;5.57;2.78;;;;;;;;;;5110523;28;20467;-71
2022/06/25 05:31:09;;;;;;;5.90;2.80;;;;;;;;;;5111575;27;20468;-71
2022/06/25 05:34:35;;;;;;;6.13;2.78;;;;;;;;;;5111132;27;20457;-71
2022/06/25 05:37:01;;;;;;;4.88;2.65;;;;;;;;;;5111283;28;20020;-70
2022/06/25 05:44:43;;;;;;;7.10;3.55;;;;;;;;;;5111706;27;20838;-70
2022/06/25 05:47:09;;;;;;;7.18;3.90;;;;;;;;;;5111258;28;20107;-70
2022/06/25 05:49:36;;;;;;;7.82;3.97;;;;;;;;;;5111444;28;20024;-71
2022/06/25 05:52:02;;;;;;;9.57;3.92;;;;;;;;;;5111119;28;20053;-70
2022/06/25 05:54:28;;;;;;;8.27;3.63;;;;;;;;;;5110745;28;20449;-70
2022/06/25 05:56:54;;;;;;;6.55;3.80;;;;;;;;;;5111289;28;20097;-70
2022/06/25 05:59:21;;;;;;;8.77;4.65;;;;;;;;;;5110941;28;20027;-70
2022/06/25 06:01:47;;;;;;;7.95;4.63;;;;;;;;;;5110607;28;20024;-70
2022/06/25 06:04:13;;;;;;;8.75;4.88;;;;;;;;;;5111023;28;20036;-71
2022/06/25 06:09:10;;;;;;;6.38;4.32;;;;;;;;;;5173090;27;20114;-71
2022/06/25 06:11:36;;;;;;;7.18;4.60;;;;;;;;;;5152690;27;20058;-71
2022/06/25 06:14:02;;;;;;;7.35;4.30;;;;;;;;;;5152273;27;20031;-70
2022/06/25 06:16:28;;;;;;;7.93;4.47;;;;;;;;;;5152115;27;20090;-71
2022/06/25 06:19:17;;;;;;;7.30;4.57;;;;;;;;;;5112118;27;20388;-70
2022/06/25 06:24:48;;;;;;;7.75;4.93;;;;;;;;;;5111300;27;20109;-71
2022/06/25 06:27:14;;;;;;;8.20;4.97;;;;;;;;;;5111243;28;20023;-72
2022/06/25 06:29:59;;;;;;;8.93;4.80;;;;;;;;;;5111052;27;20105;-71
2022/06/25 06:33:50;;;;;;;8.32;4.97;;;;;;;;;;5111281;27;20446;-71
2022/06/25 06:36:16;;;;;;;7.88;4.45;;;;;;;;;;5110870;28;20016;-70
2022/06/25 06:38:42;;;;;;;8.43;5.28;;;;;;;;;;5111034;28;20052;-70
2022/06/25 06:42:41;;;;;;;9.73;5.00;;;;;;;;;;5111287;27;20422;-70
2022/06/25 06:45:17;;;;;;;7.05;4.75;;;;;;;;;;5111005;27;20426;-70
2022/06/25 06:47:44;;;;;;;9.10;5.47;;;;;;;;;;5111218;28;20023;-71
2022/06/25 06:50:10;;;;;;;8.70;5.15;;;;;;;;;;5110804;28;20020;-70
2022/06/25 06:52:36;;;;;;;9.02;5.53;;;;;;;;;;5111612;28;20023;-70
2022/06/25 06:55:04;;;;;;;8.48;4.40;;;;;;;;;;5111039;28;20020;-70
2022/06/25 06:57:34;;;;;;;9.38;5.85;;;;;;;;;;5110910;28;20077;-70
2022/06/25 07:00:01;;;;;;;8.88;5.28;;;;;;;;;;5111091;28;20063;-70
2022/06/25 07:02:27;;;;;;;7.90;5.13;;;;;;;;;;5110946;28;20024;-71
2022/06/25 07:04:54;;;;;;;7.35;4.57;;;;;;;;;;5110612;28;20035;-70
2022/06/25 07:09:20;;;;;;;8.27;5.00;;;;;;;;;;5173410;27;20468;-71
2022/06/25 07:11:46;;;;;;;9.10;5.43;;;;;;;;;;5152013;27;20098;-70
2022/06/25 07:16:17;;;;;;;9.43;5.72;;;;;;;;;;5111274;27;20414;-72
2022/06/25 07:18:43;;;;;;;9.30;4.88;;;;;;;;;;5110864;28;20028;-72
2022/06/25 07:21:09;;;;;;;9.18;4.72;;;;;;;;;;5111142;28;20031;-72
2022/06/25 07:23:35;;;;;;;7.63;4.65;;;;;;;;;;5111623;28;20046;-72
2022/06/25 07:26:01;;;;;;;8.88;4.88;;;;;;;;;;5111011;28;20020;-70
2022/06/25 07:29:52;;;;;;;8.65;5.18;;;;;;;;;;5111822;27;20533;-71
2022/06/25 07:32:42;;;;;;;7.43;4.68;;;;;;;;;;5111454;27;20393;-71
2022/06/25 07:37:21;;;;;;;9.18;4.75;;;;;;;;;;5111174;27;20393;-70
2022/06/25 07:39:47;;;;;;;8.57;5.07;;;;;;;;;;5110833;28;20020;-70
2022/06/25 07:42:13;;;;;;;7.35;4.88;;;;;;;;;;5111261;28;20024;-70
2022/06/25 07:44:39;;;;;;;8.02;5.35;;;;;;;;;;5111113;28;20027;-70
2022/06/25 07:48:02;;;;;;;8.93;5.60;;;;;;;;;;5110871;27;20422;-71
2022/06/25 07:53:13;;;;;;;8.65;5.40;;;;;;;;;;5111188;28;20501;-71
2022/06/25 07:55:39;;;;;;;9.80;5.13;;;;;;;;;;5110765;28;20095;-72
2022/06/25 07:58:06;;;;;;;7.55;5.35;;;;;;;;;;5111307;28;20024;-71
2022/06/25 08:00:33;;;;;;;7.60;4.88;;;;;;;;;;5110730;28;20028;-72
2022/06/25 08:02:59;;;;;;;7.78;5.35;;;;;;;;;;5111223;28;20085;-72
2022/06/25 08:05:25;;;;;;;9.05;5.82;;;;;;;;;;5110981;28;20020;-72
2022/06/25 08:07:51;;;;;;;12.23;5.53;;;;;;;;;;5110493;28;20036;-72
2022/06/25 08:10:18;;;;;;;8.13;4.80;;;;;;;;;;5110801;28;20027;-72
2022/06/25 08:12:44;;;;;;;8.10;4.28;;;;;;;;;;5110866;28;20024;-72
2022/06/25 08:15:11;;;;;;;8.27;5.32;;;;;;;;;;5110480;28;20031;-72
2022/06/25 08:17:37;;;;;;;8.90;5.38;;;;;;;;;;5110714;28;20024;-72
2022/06/25 08:21:43;;;;;;;11.70;4.93;;;;;;;;;;5111216;27;20404;-72
2022/06/25 08:24:09;;;;;;;7.75;4.57;;;;;;;;;;5111267;28;20475;-72
2022/06/25 08:26:35;;;;;;;9.70;5.00;;;;;;;;;;5111135;28;20418;-72
2022/06/25 08:29:01;;;;;;;9.25;5.30;;;;;;;;;;5110775;28;20016;-71
2022/06/25 08:31:29;;;;;;;8.98;5.00;;;;;;;;;;5111044;28;20020;-71
2022/06/25 08:33:55;;;;;;;8.02;5.10;;;;;;;;;;5111111;28;20047;-71
2022/06/25 08:38:16;;;;;;;8.35;4.53;;;;;;;;;;5112100;27;20397;-72
2022/06/25 08:40:42;;;;;;;9.60;4.63;;;;;;;;;;5111552;28;20093;-72
2022/06/25 08:43:08;;;;;;;8.68;4.93;;;;;;;;;;5110995;28;20085;-72
2022/06/25 08:45:35;;;;;;;9.07;4.78;;;;;;;;;;5111181;28;20024;-72
2022/06/25 08:48:02;;;;;;;7.53;4.32;;;;;;;;;;5111285;28;20026;-72
2022/06/25 08:50:28;;;;;;;8.02;4.47;;;;;;;;;;5110757;28;20502;-72
2022/06/25 08:52:55;;;;;;;7.57;4.72;;;;;;;;;;5111187;28;20020;-72
2022/06/25 08:55:36;;;;;;;9.13;4.20;;;;;;;;;;5110987;28;20072;-72
2022/06/25 08:58:03;;;;;;;9.23;4.22;;;;;;;;;;5110453;28;20024;-72
2022/06/25 09:00:30;;;;;;;7.05;3.97;;;;;;;;;;5110888;28;20020;-71
2022/06/25 09:02:56;;;;;;;6.68;4.00;;;;;;;;;;5110783;28;20031;-72
2022/06/25 09:05:36;;;;;;;9.45;4.15;;;;;;;;;;5108994;28;20024;-72
2022/06/25 09:08:03;;;;;;;6.68;3.72;;;;;;;;;;5110750;28;20094;-72
2022/06/25 09:10:30;;;;;;;7.72;4.50;;;;;;;;;;5110629;28;20149;-72
2022/06/25 09:12:57;;;;;;;9.18;4.53;;;;;;;;;;5110200;28;20024;-72
2022/06/25 09:15:29;;;;;;;9.45;4.57;;;;;;;;;;5110514;28;20028;-72
2022/06/25 09:17:55;;;;;;;8.23;4.05;;;;;;;;;;5110633;28;20437;-72
2022/06/25 09:20:23;;;;;;;8.98;4.22;;;;;;;;;;5110753;28;20020;-72
2022/06/25 09:23:05;;;;;;;10.43;3.95;;;;;;;;;;5110647;28;20028;-72
2022/06/25 09:25:32;;;;;;;7.40;3.80;;;;;;;;;;5108735;28;20031;-72
2022/06/25 09:27:59;;;;;;;9.15;4.50;;;;;;;;;;5110357;28;20024;-72
2022/06/25 09:30:26;;;;;;;10.98;4.55;;;;;;;;;;5110107;28;20103;-72
2022/06/25 09:32:59;;;;;;;9.27;4.57;;;;;;;;;;5109983;28;20031;-72
2022/06/25 09:35:29;;;;;;;11.63;4.28;;;;;;;;;;5110249;28;20098;-71
2022/06/25 09:38:00;;;;;;;8.70;3.45;;;;;;;;;;5109966;28;20381;-71
2022/06/25 09:40:27;;;;;;;13.55;4.03;;;;;;;;;;5109774;28;20537;-72
2022/06/25 09:42:53;;;;;;;10.65;3.55;;;;;;;;;;5109993;28;20452;-72
2022/06/25 09:45:19;;;;;;;11.38;4.00;;;;;;;;;;5109993;28;20028;-72
2022/06/25 09:47:45;;;;;;;11.13;4.28;;;;;;;;;;5106538;28;20048;-72
2022/06/25 09:50:12;;;;;;;11.38;4.00;;;;;;;;;;5096404;28;20020;-71
2022/06/25 09:52:50;;;;;;;12.23;3.72;;;;;;;;;;5096317;28;20472;-71
2022/06/25 09:55:17;;;;;;;7.00;3.03;;;;;;;;;;5096740;28;20403;-72
2022/06/25 09:57:43;;;;;;;9.63;3.33;;;;;;;;;;5096048;28;20036;-71
2022/06/25 10:00:14;;;;;;;15.05;3.15;;;;;;;;;;5095768;28;20066;-72
2022/06/25 10:02:42;;;;;;;13.13;3.38;;;;;;;;;;5096422;28;20096;-70
2022/06/25 10:05:08;;;;;;;14.93;4.88;;;;;;;;;;5096376;28;20024;-70
2022/06/25 10:10:22;;;;;;;11.95;4.10;;;;;;;;;;5096242;28;20047;-70
2022/06/25 10:12:49;;;;;;;12.95;4.50;;;;;;;;;;5095883;28;20095;-72
2022/06/25 10:15:17;;;;;;;15.32;3.30;;;;;;;;;;5095484;28;20024;-70
2022/06/25 10:17:45;;;;;;;14.52;3.55;;;;;;;;;;5095938;28;20134;-70
2022/06/25 10:20:12;;;;;;;12.30;4.07;;;;;;;;;;5096342;28;20095;-72
2022/06/25 10:22:38;;;;;;;10.80;4.50;;;;;;;;;;5095309;28;20020;-70
2022/06/25 10:25:05;;;;;;;16.08;3.95;;;;;;;;;;5095644;28;20020;-72
2022/06/25 10:27:38;;;;;;;14.35;3.58;;;;;;;;;;5095703;28;20048;-73
2022/06/25 10:30:04;;;;;;;10.02;3.45;;;;;;;;;;5095175;28;20078;-73
2022/06/25 10:32:34;;;;;;;11.30;3.65;;;;;;;;;;5096007;28;20043;-73
2022/06/25 10:35:02;;;;;;;14.27;4.55;;;;;;;;;;5095780;28;20024;-70
2022/06/25 10:37:28;;;;;;;11.82;4.35;;;;;;;;;;5094982;28;20131;-72
2022/06/25 10:39:55;;;;;;;13.82;3.95;;;;;;;;;;5095495;28;20024;-72
2022/06/25 10:45:09;;;;;;;13.55;3.17;;;;;;;;;;5095330;28;20455;-70
2022/06/25 10:47:57;;;;;;;11.02;3.55;;;;;;;;;;5095211;28;20020;-72
2022/06/25 10:50:23;;;;;;;13.52;4.32;;;;;;;;;;5095220;28;20043;-72
2022/06/25 10:53:07;;;;;;;10.98;3.60;;;;;;;;;;5095235;28;20056;-72
2022/06/25 10:55:39;;;;;;;10.25;2.63;;;;;;;;;;5095311;28;20372;-72
2022/06/25 10:58:11;;;;;;;13.38;4.03;;;;;;;;;;5094345;28;20028;-72
2022/06/25 11:00:47;;;;;;;11.45;3.40;;;;;;;;;;5094382;28;20069;-71
2022/06/25 11:03:13;;;;;;;11.65;3.33;;;;;;;;;;5094982;28;20520;-71
2022/06/25 11:05:41;;;;;;;10.65;3.47;;;;;;;;;;5094560;28;20102;-72
2022/06/25 11:08:07;;;;;;;10.35;3.13;;;;;;;;;;5095288;28;20035;-72
2022/06/25 11:10:37;;;;;;;8.80;2.53;;;;;;;;;;5094687;28;20023;-72
2022/06/25 11:13:04;;;;;;;11.95;3.15;;;;;;;;;;5093514;28;20426;-72
2022/06/25 11:15:39;;;;;;;15.50;3.67;;;;;;;;;;5094758;28;20387;-73
2022/06/25 11:18:09;;;;;;;12.23;4.05;;;;;;;;;;5094204;28;20032;-71
2022/06/25 11:20:39;;;;;;;12.30;3.17;;;;;;;;;;5094681;28;20481;-71
2022/06/25 11:23:05;;;;;;;10.75;3.05;;;;;;;;;;5093309;28;20430;-71
2022/06/25 11:28:48;;;;;;;7.57;2.88;;;;;;;;;;5094845;28;20034;-71
2022/06/25 11:31:23;;;;;;;10.13;3.60;;;;;;;;;;5094493;28;20044;-71
2022/06/25 11:33:51;;;;;;;14.95;3.92;;;;;;;;;;5093956;28;20035;-71
2022/06/25 11:36:17;;;;;;;8.95;2.97;;;;;;;;;;5094211;28;20067;-70
2022/06/25 11:38:45;;;;;;;9.82;2.92;;;;;;;;;;5094014;28;20081;-70
2022/06/25 11:41:21;;;;;;;10.00;2.78;;;;;;;;;;5094237;28;20093;-70
2022/06/25 11:43:47;;;;;;;15.15;3.58;;;;;;;;;;5094194;28;20028;-70
2022/06/25 11:46:18;;;;;;;11.35;4.75;;;;;;;;;;5093866;28;20068;-70
2022/06/25 11:48:46;;;;;;;9.82;3.17;;;;;;;;;;5094370;28;20022;-72
2022/06/25 11:51:14;;;;;;;10.35;3.20;;;;;;;;;;5094076;28;20529;-70
2022/06/25 11:53:41;;;;;;;12.27;3.10;;;;;;;;;;5093847;28;20062;-70
2022/06/25 11:56:08;;;;;;;12.85;3.58;;;;;;;;;;5093852;28;20040;-70
2022/06/25 11:58:35;;;;;;;9.50;2.50;;;;;;;;;;5094053;28;20036;-70
2022/06/25 12:01:02;;;;;;;13.82;4.28;;;;;;;;;;5093536;28;20419;-70
2022/06/25 12:03:29;;;;;;;10.90;2.80;;;;;;;;;;5093774;28;20028;-70
2022/06/25 12:05:56;;;;;;;12.18;2.67;;;;;;;;;;5092535;28;20031;-70
2022/06/25 12:08:23;;;;;;;8.07;2.33;;;;;;;;;;5093406;28;20024;-70
2022/06/25 12:10:51;;;;;;;11.48;2.60;;;;;;;;;;5093811;28;20028;-71
2022/06/25 12:13:17;;;;;;;9.25;2.47;;;;;;;;;;5093868;28;20024;-71
2022/06/25 12:15:44;;;;;;;9.90;2.95;;;;;;;;;;5093258;28;20410;-71
2022/06/25 12:18:10;;;;;;;11.38;3.45;;;;;;;;;;5092287;28;20059;-71
2022/06/25 12:20:53;;;;;;;12.82;3.35;;;;;;;;;;5094171;28;20123;-71
2022/06/25 12:23:19;;;;;;;9.50;2.88;;;;;;;;;;5094307;28;20416;-71
2022/06/25 12:25:45;;;;;;;8.90;2.88;;;;;;;;;;5093586;28;20042;-71
2022/06/25 12:28:11;;;;;;;7.65;2.72;;;;;;;;;;5093140;28;20047;-71
2022/06/25 12:30:37;;;;;;;11.32;2.92;;;;;;;;;;5093524;28;20074;-72
2022/06/25 12:33:04;;;;;;;10.00;3.17;;;;;;;;;;5093452;28;20024;-72
2022/06/25 12:35:31;;;;;;;11.80;3.00;;;;;;;;;;5093032;28;20035;-71
2022/06/25 12:38:00;;;;;;;11.43;3.10;;;;;;;;;;5093123;28;20431;-71
2022/06/25 12:40:26;;;;;;;7.55;2.05;;;;;;;;;;5093459;28;20117;-71
2022/06/25 12:42:59;;;;;;;12.32;2.53;;;;;;;;;;5093063;28;20051;-71
2022/06/25 12:45:26;;;;;;;11.07;3.13;;;;;;;;;;5093399;28;20055;-71
2022/06/25 12:47:52;;;;;;;12.20;3.38;;;;;;;;;;5093638;28;20028;-71
2022/06/25 12:50:22;;;;;;;7.57;2.13;;;;;;;;;;5092999;28;20103;-71
2022/06/25 12:52:49;;;;;;;9.35;3.00;;;;;;;;;;5093378;28;20384;-71
2022/06/25 12:55:19;;;;;;;7.13;2.30;;;;;;;;;;5093347;28;20039;-71
2022/06/25 12:57:46;;;;;;;11.13;3.30;;;;;;;;;;5092764;28;20165;-71
2022/06/25 13:00:25;;;;;;;11.10;2.67;;;;;;;;;;5093410;28;20341;-71
2022/06/25 13:02:52;;;;;;;8.45;2.35;;;;;;;;;;5093492;28;20024;-71
2022/06/25 13:05:19;;;;;;;8.35;2.33;;;;;;;;;;5092701;28;20024;-71
2022/06/25 13:07:45;;;;;;;9.85;2.95;;;;;;;;;;5093178;28;20024;-71
2022/06/25 13:10:12;;;;;;;8.35;2.70;;;;;;;;;;5092753;28;20047;-71
2022/06/25 13:12:38;;;;;;;9.35;2.80;;;;;;;;;;5093176;28;20020;-71
2022/06/25 13:15:08;;;;;;;11.13;2.85;;;;;;;;;;5093316;28;20035;-71
2022/06/25 13:17:34;;;;;;;9.07;2.67;;;;;;;;;;5093086;28;20121;-72
2022/06/25 13:20:00;;;;;;;13.30;2.65;;;;;;;;;;5093118;28;20016;-70
2022/06/25 13:22:27;;;;;;;8.18;2.50;;;;;;;;;;5091707;28;20024;-71
2022/06/25 13:24:54;;;;;;;7.85;2.33;;;;;;;;;;5096339;28;20468;-71
2022/06/25 13:27:20;;;;;;;9.05;2.22;;;;;;;;;;5097116;28;20055;-71
2022/06/25 13:29:46;;;;;;;7.93;2.70;;;;;;;;;;5096915;28;20484;-71
2022/06/25 13:32:19;;;;;;;6.78;2.30;;;;;;;;;;5096349;28;20529;-71
2022/06/25 13:34:45;;;;;;;9.68;2.50;;;;;;;;;;5096915;28;20438;-71
2022/06/25 13:37:12;;;;;;;9.70;2.60;;;;;;;;;;5096318;28;20048;-71
2022/06/25 13:39:38;;;;;;;8.68;3.15;;;;;;;;;;5096357;28;20095;-71
2022/06/25 13:42:04;;;;;;;10.90;2.90;;;;;;;;;;5096841;28;20111;-71
2022/06/25 13:44:36;;;;;;;9.63;2.72;;;;;;;;;;5096533;28;20024;-72
2022/06/25 13:47:06;;;;;;;12.10;3.50;;;;;;;;;;5096305;28;20096;-72
2022/06/25 13:49:32;;;;;;;7.47;2.58;;;;;;;;;;5096480;28;20016;-72
2022/06/25 13:52:00;;;;;;;11.15;3.70;;;;;;;;;;5096360;28;20024;-72
2022/06/25 13:54:27;;;;;;;10.60;2.60;;;;;;;;;;5095969;28;20024;-72
2022/06/25 13:56:53;;;;;;;8.18;2.63;;;;;;;;;;5096224;28;20036;-72
2022/06/25 13:59:20;;;;;;;8.05;2.70;;;;;;;;;;5095683;28;20031;-71
2022/06/25 14:01:46;;;;;;;9.80;2.97;;;;;;;;;;5096463;28;20047;-71
2022/06/25 14:04:12;;;;;;;11.15;3.53;;;;;;;;;;5096265;28;20055;-72
2022/06/25 14:06:39;;;;;;;8.98;2.40;;;;;;;;;;5095657;28;20020;-72
2022/06/25 14:09:10;;;;;;;8.60;2.63;;;;;;;;;;5096101;28;20024;-72
2022/06/25 14:11:36;;;;;;;8.17;2.77;;;;;;;;;;5096298;28;20055;-73
2022/06/25 14:14:03;;;;;;;10.45;4.00;;;;;;;;;;5095544;28;20472;-71
2022/06/25 14:16:29;;;;;;;9.18;3.20;;;;;;;;;;5095816;28;20534;-71
2022/06/25 14:18:55;;;;;;;9.75;3.00;;;;;;;;;;5095767;28;20032;-71
2022/06/25 14:21:21;;;;;;;9.88;2.25;;;;;;;;;;5095666;28;20013;-71
2022/06/25 14:23:47;;;;;;;6.93;2.20;;;;;;;;;;5095704;28;20058;-71
2022/06/25 14:26:13;;;;;;;11.40;2.85;;;;;;;;;;5095645;28;20020;-71
2022/06/25 14:28:40;;;;;;;9.75;3.10;;;;;;;;;;5095287;28;20039;-73
2022/06/25 14:31:07;;;;;;;14.20;3.95;;;;;;;;;;5095465;28;20495;-71
2022/06/25 14:33:34;;;;;;;13.00;3.30;;;;;;;;;;5095868;28;20058;-71
2022/06/25 14:44:16;;;;;;;12.82;3.33;;;;;;;;;;5095422;28;20031;-72
2022/06/25 14:46:42;;;;;;;11.25;4.28;;;;;;;;;;5095470;28;20024;-72
2022/06/25 14:49:08;;;;;;;11.77;3.20;;;;;;;;;;5093561;28;20393;-72
2022/06/25 14:51:34;;;;;;;9.93;3.42;;;;;;;;;;5095204;28;20024;-72
2022/06/25 14:54:01;;;;;;;11.15;2.67;;;;;;;;;;5095206;28;20039;-72
2022/06/25 14:56:27;;;;;;;8.10;3.40;;;;;;;;;;5094689;28;20032;-71
2022/06/25 14:58:53;;;;;;;12.07;3.33;;;;;;;;;;5095026;28;20032;-71
2022/06/25 15:01:19;;;;;;;7.07;2.45;;;;;;;;;;5094970;28;20103;-71
2022/06/25 15:03:48;;;;;;;11.82;2.88;;;;;;;;;;5094601;28;20032;-71
2022/06/25 15:06:15;;;;;;;11.05;3.10;;;;;;;;;;5094910;28;20189;-71
2022/06/25 15:08:41;;;;;;;10.10;2.97;;;;;;;;;;5094808;28;20024;-71
2022/06/25 15:11:07;;;;;;;9.18;2.63;;;;;;;;;;5094475;28;20031;-72
2022/06/25 15:13:33;;;;;;;8.65;2.80;;;;;;;;;;5095356;28;20068;-72
2022/06/25 15:16:00;;;;;;;11.05;2.67;;;;;;;;;;5094653;28;20069;-71
2022/06/25 15:18:26;;;;;;;8.57;2.90;;;;;;;;;;5094393;28;20099;-73
2022/06/25 15:20:52;;;;;;;10.77;3.13;;;;;;;;;;5094755;28;20024;-72
2022/06/25 15:23:18;;;;;;;9.57;2.88;;;;;;;;;;5094644;28;20038;-72
2022/06/25 15:25:45;;;;;;;11.63;2.90;;;;;;;;;;5094198;28;20480;-71
2022/06/25 15:28:11;;;;;;;12.88;3.33;;;;;;;;;;5094528;28;20084;-70
2022/06/25 15:30:37;;;;;;;10.80;3.08;;;;;;;;;;5094427;28;20057;-73
2022/06/25 15:33:04;;;;;;;9.27;2.97;;;;;;;;;;5094495;28;20028;-71
2022/06/25 15:35:30;;;;;;;13.35;4.75;;;;;;;;;;5094602;28;20024;-72
2022/06/25 15:37:56;;;;;;;13.23;3.08;;;;;;;;;;5093686;28;20055;-71
2022/06/25 15:40:22;;;;;;;12.50;3.50;;;;;;;;;;5094289;28;20020;-71
2022/06/25 15:42:49;;;;;;;11.73;3.20;;;;;;;;;;5093027;28;20020;-71
2022/06/25 15:45:15;;;;;;;13.98;2.92;;;;;;;;;;5093760;28;20094;-71
2022/06/25 15:47:41;;;;;;;16.60;3.45;;;;;;;;;;5093710;28;20028;-71
2022/06/25 15:50:08;;;;;;;7.85;2.78;;;;;;;;;;5094123;28;20077;-71
2022/06/25 15:52:34;;;;;;;10.57;3.38;;;;;;;;;;5093653;28;20024;-71
2022/06/25 15:55:00;;;;;;;7.90;2.65;;;;;;;;;;5093984;28;20078;-71
2022/06/25 15:57:26;;;;;;;14.10;3.08;;;;;;;;;;5093834;28;20536;-71
2022/06/25 15:59:52;;;;;;;11.30;3.03;;;;;;;;;;5093539;28;20059;-71
2022/06/25 16:02:18;;;;;;;10.80;3.22;;;;;;;;;;5093891;28;20028;-71
2022/06/25 16:04:45;;;;;;;10.50;2.88;;;;;;;;;;5093757;28;20020;-71
2022/06/25 16:07:11;;;;;;;12.65;3.25;;;;;;;;;;5093961;28;20471;-72
2022/06/25 16:09:37;;;;;;;10.93;3.08;;;;;;;;;;5093823;28;20422;-72
2022/06/25 16:12:04;;;;;;;10.77;3.38;;;;;;;;;;5093708;28;20032;-71
2022/06/25 16:14:30;;;;;;;13.77;3.30;;;;;;;;;;5093418;28;20047;-71
2022/06/25 16:16:56;;;;;;;13.20;3.78;;;;;;;;;;5093836;28;20028;-72
2022/06/25 16:19:23;;;;;;;13.57;3.20;;;;;;;;;;5093719;28;20024;-71
2022/06/25 16:21:52;;;;;;;12.52;3.42;;;;;;;;;;5093230;28;20027;-71
2022/06/25 16:24:18;;;;;;;14.43;4.30;;;;;;;;;;5093913;28;20051;-72
2022/06/25 16:26:45;;;;;;;11.88;4.07;;;;;;;;;;5093610;28;20027;-72
2022/06/25 16:29:12;;;;;;;9.13;3.33;;;;;;;;;;5093066;28;20031;-72
2022/06/25 16:31:39;;;;;;;10.10;3.05;;;;;;;;;;5093598;28;20031;-72
2022/06/25 16:34:05;;;;;;;10.77;4.05;;;;;;;;;;5093036;28;20384;-72
2022/06/25 16:36:31;;;;;;;11.45;3.42;;;;;;;;;;5093145;28;20047;-72
2022/06/25 16:38:58;;;;;;;11.80;3.55;;;;;;;;;;5093390;28;20365;-72
2022/06/25 16:41:25;;;;;;;11.50;3.65;;;;;;;;;;5093048;28;20099;-71
2022/06/25 16:44:00;;;;;;;11.73;3.90;;;;;;;;;;5093389;28;20058;-71
2022/06/25 16:46:27;;;;;;;10.20;2.95;;;;;;;;;;5093626;28;20059;-71
2022/06/25 16:48:53;;;;;;;12.13;3.40;;;;;;;;;;5092957;28;20020;-71
2022/06/25 16:51:19;;;;;;;9.13;3.55;;;;;;;;;;5093363;28;20024;-71
2022/06/25 16:53:46;;;;;;;12.57;3.58;;;;;;;;;;5093365;28;20099;-70
2022/06/25 16:56:12;;;;;;;13.27;4.00;;;;;;;;;;5092890;28;20130;-70